Terminal Aerodrome Forecast
Issued by NWS Upton, NY

Home | Current Version | Previous Version | Text Only | Print | Product List | Glossary On
Versions: 1 2 3 4 5 6 7 8 9 10 11 12 13 14 15 16 17 18 19 20 21 22 23 24 25 26 27 28 29 30 31 32
000
FTUS41 KOKX 240300 CCA
TAFJFK
TAF COR
KJFK 240355Z 2403/2506 VRB05KT P6SM SCT250
     FM240800 05007KT P6SM SCT025 SCT100 SCT250
     FM241300 08012G19KT P6SM SCT025 SCT080 BKN200
     FM242000 11015G20KT P6SM SCT015 SCT025 BKN080
     FM250300 07014G19KT P6SM SCT010 BKN025
      TEMPO 2504/2506 5SM -RA OVC025=

USA.gov is the U.S. government's official web portal to all federal, state and local government web resources and services.